sensor_id;sensor_type;location;lat;lon;timestamp;P1;durP1;ratioP1;P2;durP2;ratioP2
22737;SDS011;11536;50.860;4.286;2022-08-11T00:05:05;7.32;;;1.75;;
22737;SDS011;11536;50.860;4.286;2022-08-11T00:07:46;4.35;;;1.50;;
22737;SDS011;11536;50.860;4.286;2022-08-11T00:10:13;7.03;;;1.90;;
22737;SDS011;11536;50.860;4.286;2022-08-11T00:12:41;6.13;;;1.67;;
22737;SDS011;11536;50.860;4.286;2022-08-11T00:15:09;3.67;;;1.50;;
22737;SDS011;11536;50.860;4.286;2022-08-11T00:17:36;4.40;;;1.88;;
22737;SDS011;11536;50.860;4.286;2022-08-11T00:20:06;5.75;;;1.90;;
22737;SDS011;11536;50.860;4.286;2022-08-11T00:22:35;4.03;;;1.50;;
22737;SDS011;11536;50.860;4.286;2022-08-11T00:25:21;6.03;;;2.05;;
22737;SDS011;11536;50.860;4.286;2022-08-11T00:27:47;4.40;;;2.15;;
22737;SDS011;11536;50.860;4.286;2022-08-11T00:30:13;7.68;;;1.70;;
22737;SDS011;11536;50.860;4.286;2022-08-11T00:32:41;3.40;;;1.42;;
22737;SDS011;11536;50.860;4.286;2022-08-11T00:35:14;6.35;;;1.48;;
22737;SDS011;11536;50.860;4.286;2022-08-11T00:37:46;4.63;;;1.60;;
22737;SDS011;11536;50.860;4.286;2022-08-11T00:40:15;5.32;;;1.65;;
22737;SDS011;11536;50.860;4.286;2022-08-11T00:42:58;4.38;;;1.67;;
22737;SDS011;11536;50.860;4.286;2022-08-11T00:45:41;3.03;;;1.55;;
22737;SDS011;11536;50.860;4.286;2022-08-11T00:48:40;8.00;;;1.85;;
22737;SDS011;11536;50.860;4.286;2022-08-11T01:00:55;8.27;;;1.92;;
22737;SDS011;11536;50.860;4.286;2022-08-11T01:12:03;5.03;;;1.52;;
22737;SDS011;11536;50.860;4.286;2022-08-11T01:23:38;5.38;;;1.80;;
22737;SDS011;11536;50.860;4.286;2022-08-11T01:35:25;5.35;;;1.70;;
22737;SDS011;11536;50.860;4.286;2022-08-11T01:46:42;4.22;;;1.50;;
22737;SDS011;11536;50.860;4.286;2022-08-11T01:52:29;5.45;;;1.70;;
22737;SDS011;11536;50.860;4.286;2022-08-11T01:55:48;3.50;;;1.58;;
22737;SDS011;11536;50.860;4.286;2022-08-11T01:58:47;5.63;;;1.60;;
22737;SDS011;11536;50.860;4.286;2022-08-11T02:01:32;7.53;;;1.98;;
22737;SDS011;11536;50.860;4.286;2022-08-11T02:18:12;6.28;;;2.17;;
22737;SDS011;11536;50.860;4.286;2022-08-11T02:20:53;3.75;;;1.60;;
22737;SDS011;11536;50.860;4.286;2022-08-11T02:26:44;3.97;;;1.65;;
22737;SDS011;11536;50.860;4.286;2022-08-11T02:29:18;5.88;;;1.63;;
22737;SDS011;11536;50.860;4.286;2022-08-11T02:34:54;5.18;;;1.98;;
22737;SDS011;11536;50.860;4.286;2022-08-11T02:37:27;5.63;;;1.77;;
22737;SDS011;11536;50.860;4.286;2022-08-11T02:42:29;9.75;;;2.17;;
22737;SDS011;11536;50.860;4.286;2022-08-11T02:50:38;8.70;;;2.60;;
22737;SDS011;11536;50.860;4.286;2022-08-11T02:53:16;5.15;;;1.88;;
22737;SDS011;11536;50.860;4.286;2022-08-11T02:56:13;7.95;;;2.13;;
22737;SDS011;11536;50.860;4.286;2022-08-11T03:04:48;8.20;;;2.55;;
22737;SDS011;11536;50.860;4.286;2022-08-11T03:07:38;6.30;;;2.08;;
22737;SDS011;11536;50.860;4.286;2022-08-11T03:10:24;4.07;;;1.80;;
22737;SDS011;11536;50.860;4.286;2022-08-11T03:13:07;5.47;;;1.80;;
22737;SDS011;11536;50.860;4.286;2022-08-11T03:21:35;6.80;;;2.00;;
22737;SDS011;11536;50.860;4.286;2022-08-11T03:27:09;5.95;;;2.20;;
22737;SDS011;11536;50.860;4.286;2022-08-11T03:30:09;4.93;;;2.10;;
22737;SDS011;11536;50.860;4.286;2022-08-11T03:33:17;6.32;;;2.00;;
22737;SDS011;11536;50.860;4.286;2022-08-11T03:36:14;8.90;;;2.00;;
22737;SDS011;11536;50.860;4.286;2022-08-11T03:41:34;6.28;;;2.08;;
22737;SDS011;11536;50.860;4.286;2022-08-11T03:44:17;5.38;;;2.10;;
22737;SDS011;11536;50.860;4.286;2022-08-11T03:47:11;4.57;;;1.80;;
22737;SDS011;11536;50.860;4.286;2022-08-11T03:50:01;4.38;;;2.05;;
22737;SDS011;11536;50.860;4.286;2022-08-11T04:03:51;6.63;;;2.20;;
22737;SDS011;11536;50.860;4.286;2022-08-11T04:09:11;6.70;;;2.58;;
22737;SDS011;11536;50.860;4.286;2022-08-11T04:21:09;5.65;;;2.10;;
22737;SDS011;11536;50.860;4.286;2022-08-11T04:35:38;9.57;;;2.40;;
22737;SDS011;11536;50.860;4.286;2022-08-11T04:56:16;7.78;;;2.50;;
22737;SDS011;11536;50.860;4.286;2022-08-11T04:59:22;7.30;;;2.25;;
22737;SDS011;11536;50.860;4.286;2022-08-11T05:16:55;9.73;;;2.67;;
22737;SDS011;11536;50.860;4.286;2022-08-11T05:19:53;7.13;;;2.65;;
22737;SDS011;11536;50.860;4.286;2022-08-11T05:22:37;8.13;;;2.95;;
22737;SDS011;11536;50.860;4.286;2022-08-11T05:25:31;6.53;;;3.45;;
22737;SDS011;11536;50.860;4.286;2022-08-11T05:28:30;7.50;;;2.92;;
22737;SDS011;11536;50.860;4.286;2022-08-11T05:31:18;5.10;;;2.78;;
22737;SDS011;11536;50.860;4.286;2022-08-11T05:34:11;5.95;;;2.40;;
22737;SDS011;11536;50.860;4.286;2022-08-11T05:37:20;6.03;;;2.38;;
22737;SDS011;11536;50.860;4.286;2022-08-11T05:39:59;7.10;;;3.42;;
22737;SDS011;11536;50.860;4.286;2022-08-11T05:42:58;8.15;;;2.85;;
22737;SDS011;11536;50.860;4.286;2022-08-11T05:45:54;8.90;;;3.10;;
22737;SDS011;11536;50.860;4.286;2022-08-11T05:48:43;5.97;;;2.58;;
22737;SDS011;11536;50.860;4.286;2022-08-11T05:51:34;6.55;;;2.70;;
22737;SDS011;11536;50.860;4.286;2022-08-11T05:54:22;14.32;;;3.17;;
22737;SDS011;11536;50.860;4.286;2022-08-11T05:57:08;7.85;;;3.30;;
22737;SDS011;11536;50.860;4.286;2022-08-11T05:59:42;6.57;;;3.75;;
22737;SDS011;11536;50.860;4.286;2022-08-11T06:02:10;9.68;;;3.00;;
22737;SDS011;11536;50.860;4.286;2022-08-11T06:04:37;6.75;;;3.00;;
22737;SDS011;11536;50.860;4.286;2022-08-11T06:07:07;7.63;;;3.00;;
22737;SDS011;11536;50.860;4.286;2022-08-11T06:14:41;6.40;;;3.05;;
22737;SDS011;11536;50.860;4.286;2022-08-11T06:17:09;8.23;;;3.60;;
22737;SDS011;11536;50.860;4.286;2022-08-11T06:19:37;9.90;;;3.95;;
22737;SDS011;11536;50.860;4.286;2022-08-11T06:22:05;11.10;;;3.80;;
22737;SDS011;11536;50.860;4.286;2022-08-11T06:24:37;8.57;;;4.10;;
22737;SDS011;11536;50.860;4.286;2022-08-11T06:27:05;8.40;;;3.10;;
22737;SDS011;11536;50.860;4.286;2022-08-11T06:29:32;8.70;;;3.83;;
22737;SDS011;11536;50.860;4.286;2022-08-11T06:32:05;9.77;;;3.80;;
22737;SDS011;11536;50.860;4.286;2022-08-11T06:34:35;6.22;;;3.13;;
22737;SDS011;11536;50.860;4.286;2022-08-11T06:45:25;12.38;;;3.83;;
22737;SDS011;11536;50.860;4.286;2022-08-11T06:47:58;11.40;;;3.40;;
22737;SDS011;11536;50.860;4.286;2022-08-11T06:50:26;9.20;;;3.45;;
22737;SDS011;11536;50.860;4.286;2022-08-11T06:53:14;6.63;;;3.30;;
22737;SDS011;11536;50.860;4.286;2022-08-11T06:55:42;9.55;;;3.60;;
22737;SDS011;11536;50.860;4.286;2022-08-11T06:58:29;15.18;;;3.80;;
22737;SDS011;11536;50.860;4.286;2022-08-11T07:01:18;10.52;;;3.13;;
22737;SDS011;11536;50.860;4.286;2022-08-11T07:03:55;10.43;;;3.35;;
22737;SDS011;11536;50.860;4.286;2022-08-11T07:06:44;7.90;;;3.30;;
22737;SDS011;11536;50.860;4.286;2022-08-11T07:12:42;12.05;;;3.25;;
22737;SDS011;11536;50.860;4.286;2022-08-11T07:15:31;8.65;;;3.42;;
22737;SDS011;11536;50.860;4.286;2022-08-11T07:18:32;15.23;;;3.53;;
22737;SDS011;11536;50.860;4.286;2022-08-11T07:21:26;11.50;;;3.33;;
22737;SDS011;11536;50.860;4.286;2022-08-11T07:24:16;7.53;;;3.38;;
22737;SDS011;11536;50.860;4.286;2022-08-11T07:27:07;7.57;;;2.83;;
22737;SDS011;11536;50.860;4.286;2022-08-11T07:29:57;8.07;;;3.03;;
22737;SDS011;11536;50.860;4.286;2022-08-11T07:32:27;6.57;;;2.65;;
22737;SDS011;11536;50.860;4.286;2022-08-11T07:35:06;8.07;;;3.38;;
22737;SDS011;11536;50.860;4.286;2022-08-11T07:37:33;8.80;;;3.20;;
22737;SDS011;11536;50.860;4.286;2022-08-11T07:39:59;8.98;;;3.00;;
22737;SDS011;11536;50.860;4.286;2022-08-11T07:42:28;9.05;;;2.80;;
22737;SDS011;11536;50.860;4.286;2022-08-11T07:44:56;10.80;;;3.25;;
22737;SDS011;11536;50.860;4.286;2022-08-11T07:47:42;11.57;;;3.13;;
22737;SDS011;11536;50.860;4.286;2022-08-11T07:50:28;9.00;;;2.65;;
22737;SDS011;11536;50.860;4.286;2022-08-11T07:53:13;9.00;;;3.15;;
22737;SDS011;11536;50.860;4.286;2022-08-11T07:55:40;9.93;;;3.17;;
22737;SDS011;11536;50.860;4.286;2022-08-11T07:58:07;10.70;;;3.50;;
22737;SDS011;11536;50.860;4.286;2022-08-11T08:00:54;13.85;;;3.60;;
22737;SDS011;11536;50.860;4.286;2022-08-11T08:03:40;10.85;;;3.28;;
22737;SDS011;11536;50.860;4.286;2022-08-11T08:06:26;12.63;;;3.20;;
22737;SDS011;11536;50.860;4.286;2022-08-11T08:09:12;9.93;;;3.25;;
22737;SDS011;11536;50.860;4.286;2022-08-11T08:11:59;9.55;;;2.80;;
22737;SDS011;11536;50.860;4.286;2022-08-11T08:14:44;7.50;;;2.90;;
22737;SDS011;11536;50.860;4.286;2022-08-11T08:17:29;8.43;;;2.92;;
22737;SDS011;11536;50.860;4.286;2022-08-11T08:20:14;8.02;;;2.80;;
22737;SDS011;11536;50.860;4.286;2022-08-11T08:22:41;12.85;;;2.60;;
22737;SDS011;11536;50.860;4.286;2022-08-11T08:25:08;9.55;;;2.90;;
22737;SDS011;11536;50.860;4.286;2022-08-11T08:27:35;7.47;;;2.60;;
22737;SDS011;11536;50.860;4.286;2022-08-11T08:30:03;7.72;;;3.00;;
22737;SDS011;11536;50.860;4.286;2022-08-11T08:32:48;9.88;;;3.15;;
22737;SDS011;11536;50.860;4.286;2022-08-11T08:35:16;11.25;;;2.80;;
22737;SDS011;11536;50.860;4.286;2022-08-11T08:37:42;9.65;;;2.67;;
22737;SDS011;11536;50.860;4.286;2022-08-11T08:40:08;5.97;;;2.55;;
22737;SDS011;11536;50.860;4.286;2022-08-11T08:42:41;8.90;;;3.35;;
22737;SDS011;11536;50.860;4.286;2022-08-11T08:45:15;10.98;;;2.92;;
22737;SDS011;11536;50.860;4.286;2022-08-11T08:47:44;7.25;;;2.42;;
22737;SDS011;11536;50.860;4.286;2022-08-11T08:50:16;6.70;;;2.83;;
22737;SDS011;11536;50.860;4.286;2022-08-11T08:52:51;7.87;;;2.50;;
22737;SDS011;11536;50.860;4.286;2022-08-11T08:55:28;13.13;;;3.08;;
22737;SDS011;11536;50.860;4.286;2022-08-11T08:57:55;6.53;;;2.88;;
22737;SDS011;11536;50.860;4.286;2022-08-11T09:00:24;9.60;;;3.20;;
22737;SDS011;11536;50.860;4.286;2022-08-11T09:03:01;7.20;;;2.97;;
22737;SDS011;11536;50.860;4.286;2022-08-11T09:05:27;10.68;;;3.60;;
22737;SDS011;11536;50.860;4.286;2022-08-11T09:07:53;7.95;;;2.80;;
22737;SDS011;11536;50.860;4.286;2022-08-11T09:10:22;9.52;;;3.40;;
22737;SDS011;11536;50.860;4.286;2022-08-11T09:12:48;8.63;;;2.90;;
22737;SDS011;11536;50.860;4.286;2022-08-11T09:15:14;6.20;;;2.50;;
22737;SDS011;11536;50.860;4.286;2022-08-11T09:17:46;6.10;;;2.80;;
22737;SDS011;11536;50.860;4.286;2022-08-11T09:20:19;13.70;;;2.97;;
22737;SDS011;11536;50.860;4.286;2022-08-11T09:22:48;6.97;;;2.70;;
22737;SDS011;11536;50.860;4.286;2022-08-11T09:25:34;5.85;;;2.80;;
22737;SDS011;11536;50.860;4.286;2022-08-11T09:28:20;6.57;;;2.75;;
22737;SDS011;11536;50.860;4.286;2022-08-11T09:30:50;10.82;;;3.00;;
22737;SDS011;11536;50.860;4.286;2022-08-11T09:33:17;10.25;;;3.03;;
22737;SDS011;11536;50.860;4.286;2022-08-11T09:35:45;7.05;;;2.92;;
22737;SDS011;11536;50.860;4.286;2022-08-11T09:38:13;10.18;;;3.10;;
22737;SDS011;11536;50.860;4.286;2022-08-11T09:41:00;7.97;;;2.50;;
22737;SDS011;11536;50.860;4.286;2022-08-11T09:43:30;7.15;;;2.60;;
22737;SDS011;11536;50.860;4.286;2022-08-11T09:46:15;5.80;;;2.80;;
22737;SDS011;11536;50.860;4.286;2022-08-11T09:48:46;10.27;;;3.08;;
22737;SDS011;11536;50.860;4.286;2022-08-11T09:51:12;9.55;;;2.60;;
22737;SDS011;11536;50.860;4.286;2022-08-11T09:53:41;4.38;;;2.50;;
22737;SDS011;11536;50.860;4.286;2022-08-11T09:56:18;9.48;;;2.97;;
22737;SDS011;11536;50.860;4.286;2022-08-11T09:59:05;6.22;;;2.72;;
22737;SDS011;11536;50.860;4.286;2022-08-11T10:01:39;5.70;;;2.53;;
22737;SDS011;11536;50.860;4.286;2022-08-11T10:04:13;11.23;;;3.15;;
22737;SDS011;11536;50.860;4.286;2022-08-11T10:06:41;6.22;;;3.00;;
22737;SDS011;11536;50.860;4.286;2022-08-11T10:12:09;5.95;;;2.50;;
22737;SDS011;11536;50.860;4.286;2022-08-11T10:14:40;8.73;;;2.80;;
22737;SDS011;11536;50.860;4.286;2022-08-11T10:17:29;5.32;;;2.75;;
22737;SDS011;11536;50.860;4.286;2022-08-11T10:19:58;11.60;;;2.83;;
22737;SDS011;11536;50.860;4.286;2022-08-11T10:22:27;5.65;;;3.33;;
22737;SDS011;11536;50.860;4.286;2022-08-11T10:25:12;6.05;;;2.85;;
22737;SDS011;11536;50.860;4.286;2022-08-11T10:27:58;5.32;;;2.97;;
22737;SDS011;11536;50.860;4.286;2022-08-11T10:30:27;6.25;;;2.60;;
22737;SDS011;11536;50.860;4.286;2022-08-11T10:33:11;8.25;;;2.83;;
22737;SDS011;11536;50.860;4.286;2022-08-11T10:35:57;4.93;;;2.60;;
22737;SDS011;11536;50.860;4.286;2022-08-11T10:38:24;8.48;;;2.80;;
22737;SDS011;11536;50.860;4.286;2022-08-11T10:40:52;6.57;;;2.80;;
22737;SDS011;11536;50.860;4.286;2022-08-11T10:43:38;8.27;;;2.90;;
22737;SDS011;11536;50.860;4.286;2022-08-11T10:46:06;9.65;;;3.10;;
22737;SDS011;11536;50.860;4.286;2022-08-11T10:48:53;5.05;;;2.35;;
22737;SDS011;11536;50.860;4.286;2022-08-11T10:51:21;8.57;;;2.92;;
22737;SDS011;11536;50.860;4.286;2022-08-11T10:54:09;5.65;;;2.50;;
22737;SDS011;11536;50.860;4.286;2022-08-11T10:56:54;5.95;;;2.45;;
22737;SDS011;11536;50.860;4.286;2022-08-11T10:59:39;4.82;;;2.92;;
22737;SDS011;11536;50.860;4.286;2022-08-11T11:02:08;6.57;;;2.60;;
22737;SDS011;11536;50.860;4.286;2022-08-11T11:04:55;6.32;;;3.13;;
22737;SDS011;11536;50.860;4.286;2022-08-11T11:08:15;4.82;;;2.70;;
22737;SDS011;11536;50.860;4.286;2022-08-11T11:10:27;5.40;;;2.85;;
22737;SDS011;11536;50.860;4.286;2022-08-11T11:12:54;5.88;;;2.38;;
22737;SDS011;11536;50.860;4.286;2022-08-11T11:15:42;5.22;;;2.65;;
22737;SDS011;11536;50.860;4.286;2022-08-11T11:18:35;7.10;;;2.65;;
22737;SDS011;11536;50.860;4.286;2022-08-11T11:23:33;6.55;;;2.90;;
22737;SDS011;11536;50.860;4.286;2022-08-11T11:29:39;7.40;;;2.90;;
22737;SDS011;11536;50.860;4.286;2022-08-11T11:38:08;5.63;;;3.10;;
22737;SDS011;11536;50.860;4.286;2022-08-11T11:40:35;5.43;;;2.65;;
22737;SDS011;11536;50.860;4.286;2022-08-11T11:43:02;6.78;;;2.60;;
22737;SDS011;11536;50.860;4.286;2022-08-11T11:45:29;6.18;;;2.50;;
22737;SDS011;11536;50.860;4.286;2022-08-11T11:47:56;5.25;;;2.75;;
22737;SDS011;11536;50.860;4.286;2022-08-11T11:50:24;6.68;;;3.22;;
22737;SDS011;11536;50.860;4.286;2022-08-11T11:52:55;6.95;;;3.30;;
22737;SDS011;11536;50.860;4.286;2022-08-11T11:55:24;5.30;;;2.75;;
22737;SDS011;11536;50.860;4.286;2022-08-11T11:57:51;6.95;;;2.50;;
22737;SDS011;11536;50.860;4.286;2022-08-11T12:00:36;7.78;;;2.63;;
22737;SDS011;11536;50.860;4.286;2022-08-11T12:03:22;6.65;;;2.55;;
22737;SDS011;11536;50.860;4.286;2022-08-11T12:05:50;6.28;;;2.90;;
22737;SDS011;11536;50.860;4.286;2022-08-11T12:08:17;6.68;;;2.72;;
22737;SDS011;11536;50.860;4.286;2022-08-11T12:10:48;6.47;;;2.53;;
22737;SDS011;11536;50.860;4.286;2022-08-11T12:13:17;5.47;;;2.80;;
22737;SDS011;11536;50.860;4.286;2022-08-11T12:16:01;6.88;;;2.53;;
22737;SDS011;11536;50.860;4.286;2022-08-11T12:18:31;5.88;;;2.50;;
22737;SDS011;11536;50.860;4.286;2022-08-11T12:20:59;6.22;;;2.70;;
22737;SDS011;11536;50.860;4.286;2022-08-11T12:23:26;6.05;;;2.78;;
22737;SDS011;11536;50.860;4.286;2022-08-11T12:26:12;4.88;;;2.53;;
22737;SDS011;11536;50.860;4.286;2022-08-11T12:28:58;8.02;;;2.38;;
22737;SDS011;11536;50.860;4.286;2022-08-11T12:31:25;8.20;;;2.70;;
22737;SDS011;11536;50.860;4.286;2022-08-11T12:33:58;6.15;;;2.55;;
22737;SDS011;11536;50.860;4.286;2022-08-11T12:36:35;6.28;;;2.50;;
22737;SDS011;11536;50.860;4.286;2022-08-11T12:39:06;5.38;;;2.30;;
22737;SDS011;11536;50.860;4.286;2022-08-11T12:41:35;4.30;;;2.40;;
22737;SDS011;11536;50.860;4.286;2022-08-11T12:44:22;4.22;;;2.15;;
22737;SDS011;11536;50.860;4.286;2022-08-11T12:47:10;4.75;;;2.53;;
22737;SDS011;11536;50.860;4.286;2022-08-11T12:49:40;8.75;;;2.50;;
22737;SDS011;11536;50.860;4.286;2022-08-11T12:52:31;5.32;;;2.42;;
22737;SDS011;11536;50.860;4.286;2022-08-11T12:55:10;3.97;;;2.05;;
22737;SDS011;11536;50.860;4.286;2022-08-11T12:57:58;7.65;;;2.70;;
22737;SDS011;11536;50.860;4.286;2022-08-11T13:00:43;5.45;;;2.33;;
22737;SDS011;11536;50.860;4.286;2022-08-11T13:03:29;4.78;;;2.10;;
22737;SDS011;11536;50.860;4.286;2022-08-11T13:06:16;6.88;;;2.85;;
22737;SDS011;11536;50.860;4.286;2022-08-11T13:08:43;4.78;;;2.08;;
22737;SDS011;11536;50.860;4.286;2022-08-11T13:11:10;5.78;;;2.08;;
22737;SDS011;11536;50.860;4.286;2022-08-11T13:13:54;6.65;;;2.13;;
22737;SDS011;11536;50.860;4.286;2022-08-11T13:16:22;4.60;;;2.20;;
22737;SDS011;11536;50.860;4.286;2022-08-11T13:19:18;5.88;;;2.10;;
22737;SDS011;11536;50.860;4.286;2022-08-11T13:21:45;5.25;;;2.20;;
22737;SDS011;11536;50.860;4.286;2022-08-11T13:24:12;5.30;;;1.98;;
22737;SDS011;11536;50.860;4.286;2022-08-11T13:26:39;5.95;;;2.38;;
22737;SDS011;11536;50.860;4.286;2022-08-11T13:29:07;6.40;;;2.20;;
22737;SDS011;11536;50.860;4.286;2022-08-11T13:31:34;5.82;;;1.75;;
22737;SDS011;11536;50.860;4.286;2022-08-11T13:34:00;3.78;;;2.20;;
22737;SDS011;11536;50.860;4.286;2022-08-11T13:36:27;5.18;;;2.20;;
22737;SDS011;11536;50.860;4.286;2022-08-11T13:38:53;3.83;;;1.98;;
22737;SDS011;11536;50.860;4.286;2022-08-11T13:41:22;5.72;;;2.10;;
22737;SDS011;11536;50.860;4.286;2022-08-11T13:44:06;3.95;;;2.03;;
22737;SDS011;11536;50.860;4.286;2022-08-11T13:46:33;3.67;;;1.90;;
22737;SDS011;11536;50.860;4.286;2022-08-11T13:49:00;6.90;;;2.05;;
22737;SDS011;11536;50.860;4.286;2022-08-11T13:51:27;4.18;;;1.95;;
22737;SDS011;11536;50.860;4.286;2022-08-11T13:56:28;4.10;;;1.80;;
22737;SDS011;11536;50.860;4.286;2022-08-11T13:58:55;6.28;;;1.98;;
22737;SDS011;11536;50.860;4.286;2022-08-11T14:01:23;3.25;;;1.75;;
22737;SDS011;11536;50.860;4.286;2022-08-11T14:03:52;4.35;;;2.05;;
22737;SDS011;11536;50.860;4.286;2022-08-11T14:06:19;4.03;;;1.80;;
22737;SDS011;11536;50.860;4.286;2022-08-11T14:08:46;5.32;;;1.80;;
22737;SDS011;11536;50.860;4.286;2022-08-11T14:11:15;4.60;;;1.95;;
22737;SDS011;11536;50.860;4.286;2022-08-11T14:14:00;4.72;;;2.20;;
22737;SDS011;11536;50.860;4.286;2022-08-11T14:19:05;4.15;;;1.90;;
22737;SDS011;11536;50.860;4.286;2022-08-11T14:21:35;6.47;;;2.10;;
22737;SDS011;11536;50.860;4.286;2022-08-11T14:24:23;6.35;;;2.20;;
22737;SDS011;11536;50.860;4.286;2022-08-11T14:26:50;6.55;;;2.05;;
22737;SDS011;11536;50.860;4.286;2022-08-11T14:29:18;4.35;;;1.92;;
22737;SDS011;11536;50.860;4.286;2022-08-11T14:31:48;5.38;;;2.70;;
22737;SDS011;11536;50.860;4.286;2022-08-11T14:34:23;5.90;;;2.20;;
22737;SDS011;11536;50.860;4.286;2022-08-11T14:36:52;4.22;;;2.25;;
22737;SDS011;11536;50.860;4.286;2022-08-11T14:39:23;3.65;;;2.05;;
22737;SDS011;11536;50.860;4.286;2022-08-11T14:42:00;4.53;;;1.80;;
22737;SDS011;11536;50.860;4.286;2022-08-11T14:44:47;6.10;;;2.28;;
22737;SDS011;11536;50.860;4.286;2022-08-11T14:47:35;10.45;;;2.03;;
22737;SDS011;11536;50.860;4.286;2022-08-11T14:50:04;7.60;;;2.10;;
22737;SDS011;11536;50.860;4.286;2022-08-11T14:52:32;3.75;;;1.90;;
22737;SDS011;11536;50.860;4.286;2022-08-11T14:55:01;4.93;;;2.50;;
22737;SDS011;11536;50.860;4.286;2022-08-11T14:57:46;3.97;;;2.00;;
22737;SDS011;11536;50.860;4.286;2022-08-11T15:00:13;8.05;;;2.35;;
22737;SDS011;11536;50.860;4.286;2022-08-11T15:02:41;5.00;;;1.98;;
22737;SDS011;11536;50.860;4.286;2022-08-11T15:05:26;5.55;;;2.20;;
22737;SDS011;11536;50.860;4.286;2022-08-11T15:07:52;5.47;;;1.95;;
22737;SDS011;11536;50.860;4.286;2022-08-11T15:10:20;3.45;;;1.88;;
22737;SDS011;11536;50.860;4.286;2022-08-11T15:12:47;5.40;;;2.40;;
22737;SDS011;11536;50.860;4.286;2022-08-11T15:15:13;4.80;;;2.40;;
22737;SDS011;11536;50.860;4.286;2022-08-11T15:17:59;6.13;;;2.30;;
22737;SDS011;11536;50.860;4.286;2022-08-11T15:20:28;5.38;;;2.40;;
22737;SDS011;11536;50.860;4.286;2022-08-11T15:23:13;7.00;;;2.20;;
22737;SDS011;11536;50.860;4.286;2022-08-11T15:26:04;5.78;;;2.50;;
22737;SDS011;11536;50.860;4.286;2022-08-11T15:28:38;5.70;;;2.17;;
22737;SDS011;11536;50.860;4.286;2022-08-11T15:31:26;5.85;;;2.45;;
22737;SDS011;11536;50.860;4.286;2022-08-11T15:34:06;5.43;;;2.40;;
22737;SDS011;11536;50.860;4.286;2022-08-11T15:36:54;4.05;;;2.30;;
22737;SDS011;11536;50.860;4.286;2022-08-11T15:39:51;5.40;;;2.50;;
22737;SDS011;11536;50.860;4.286;2022-08-11T15:42:46;5.30;;;2.20;;
22737;SDS011;11536;50.860;4.286;2022-08-11T15:45:38;4.68;;;2.40;;
22737;SDS011;11536;50.860;4.286;2022-08-11T15:48:18;4.05;;;2.17;;
22737;SDS011;11536;50.860;4.286;2022-08-11T15:50:51;4.53;;;2.38;;
22737;SDS011;11536;50.860;4.286;2022-08-11T15:56:17;8.25;;;2.42;;
22737;SDS011;11536;50.860;4.286;2022-08-11T15:58:47;6.32;;;3.22;;
22737;SDS011;11536;50.860;4.286;2022-08-11T16:01:35;4.80;;;2.75;;
22737;SDS011;11536;50.860;4.286;2022-08-11T16:04:22;8.10;;;2.88;;
22737;SDS011;11536;50.860;4.286;2022-08-11T16:06:56;6.30;;;2.30;;
22737;SDS011;11536;50.860;4.286;2022-08-11T16:12:19;6.15;;;2.40;;
22737;SDS011;11536;50.860;4.286;2022-08-11T16:14:50;4.95;;;2.20;;
22737;SDS011;11536;50.860;4.286;2022-08-11T16:17:39;4.90;;;2.30;;
22737;SDS011;11536;50.860;4.286;2022-08-11T16:20:08;5.70;;;2.47;;
22737;SDS011;11536;50.860;4.286;2022-08-11T16:22:36;4.38;;;2.45;;
22737;SDS011;11536;50.860;4.286;2022-08-11T16:25:11;5.15;;;2.42;;
22737;SDS011;11536;50.860;4.286;2022-08-11T16:27:48;4.68;;;2.00;;
22737;SDS011;11536;50.860;4.286;2022-08-11T16:30:17;4.25;;;2.25;;
22737;SDS011;11536;50.860;4.286;2022-08-11T16:32:43;4.78;;;2.33;;
22737;SDS011;11536;50.860;4.286;2022-08-11T16:35:17;3.58;;;2.25;;
22737;SDS011;11536;50.860;4.286;2022-08-11T16:38:03;7.35;;;2.72;;
22737;SDS011;11536;50.860;4.286;2022-08-11T16:40:53;5.25;;;2.50;;
22737;SDS011;11536;50.860;4.286;2022-08-11T16:43:24;8.20;;;2.40;;
22737;SDS011;11536;50.860;4.286;2022-08-11T16:46:11;4.95;;;2.28;;
22737;SDS011;11536;50.860;4.286;2022-08-11T16:49:15;4.90;;;2.40;;
22737;SDS011;11536;50.860;4.286;2022-08-11T16:51:44;6.40;;;2.50;;
22737;SDS011;11536;50.860;4.286;2022-08-11T16:54:10;5.13;;;2.15;;
22737;SDS011;11536;50.860;4.286;2022-08-11T16:56:40;6.13;;;2.33;;
22737;SDS011;11536;50.860;4.286;2022-08-11T16:59:10;4.18;;;1.90;;
22737;SDS011;11536;50.860;4.286;2022-08-11T17:07:33;4.55;;;1.90;;
22737;SDS011;11536;50.860;4.286;2022-08-11T17:10:25;5.45;;;2.30;;
22737;SDS011;11536;50.860;4.286;2022-08-11T17:13:12;6.85;;;2.17;;
22737;SDS011;11536;50.860;4.286;2022-08-11T17:15:47;5.90;;;2.55;;
22737;SDS011;11536;50.860;4.286;2022-08-11T17:21:08;4.22;;;2.20;;
22737;SDS011;11536;50.860;4.286;2022-08-11T17:23:37;5.38;;;2.03;;
22737;SDS011;11536;50.860;4.286;2022-08-11T17:28:45;4.15;;;2.17;;
22737;SDS011;11536;50.860;4.286;2022-08-11T17:31:16;4.13;;;2.15;;
22737;SDS011;11536;50.860;4.286;2022-08-11T17:34:02;4.60;;;2.00;;
22737;SDS011;11536;50.860;4.286;2022-08-11T17:36:49;5.18;;;2.15;;
22737;SDS011;11536;50.860;4.286;2022-08-11T17:39:18;5.07;;;2.13;;
22737;SDS011;11536;50.860;4.286;2022-08-11T17:41:45;4.75;;;2.30;;
22737;SDS011;11536;50.860;4.286;2022-08-11T17:44:29;4.45;;;2.33;;
22737;SDS011;11536;50.860;4.286;2022-08-11T17:47:15;6.40;;;2.60;;
22737;SDS011;11536;50.860;4.286;2022-08-11T17:50:01;6.70;;;2.10;;
22737;SDS011;11536;50.860;4.286;2022-08-11T17:52:27;4.47;;;2.13;;
22737;SDS011;11536;50.860;4.286;2022-08-11T17:55:13;8.02;;;2.35;;
22737;SDS011;11536;50.860;4.286;2022-08-11T17:57:59;5.43;;;2.58;;
22737;SDS011;11536;50.860;4.286;2022-08-11T18:00:45;10.00;;;2.72;;
22737;SDS011;11536;50.860;4.286;2022-08-11T18:03:14;6.05;;;2.45;;
22737;SDS011;11536;50.860;4.286;2022-08-11T18:06:03;6.32;;;2.30;;
22737;SDS011;11536;50.860;4.286;2022-08-11T18:08:32;4.85;;;2.10;;
22737;SDS011;11536;50.860;4.286;2022-08-11T18:11:19;6.25;;;2.10;;
22737;SDS011;11536;50.860;4.286;2022-08-11T18:14:06;5.50;;;2.38;;
22737;SDS011;11536;50.860;4.286;2022-08-11T18:16:52;6.90;;;2.58;;
22737;SDS011;11536;50.860;4.286;2022-08-11T18:19:37;7.15;;;2.42;;
22737;SDS011;11536;50.860;4.286;2022-08-11T18:22:22;6.05;;;2.35;;
22737;SDS011;11536;50.860;4.286;2022-08-11T18:25:12;6.22;;;2.58;;
22737;SDS011;11536;50.860;4.286;2022-08-11T18:28:01;6.80;;;2.65;;
22737;SDS011;11536;50.860;4.286;2022-08-11T18:30:49;5.45;;;2.55;;
22737;SDS011;11536;50.860;4.286;2022-08-11T18:33:41;8.35;;;2.40;;
22737;SDS011;11536;50.860;4.286;2022-08-11T18:36:30;5.97;;;2.60;;
22737;SDS011;11536;50.860;4.286;2022-08-11T18:39:41;5.53;;;2.47;;
22737;SDS011;11536;50.860;4.286;2022-08-11T18:42:27;4.63;;;2.50;;
22737;SDS011;11536;50.860;4.286;2022-08-11T18:45:14;6.00;;;2.20;;
22737;SDS011;11536;50.860;4.286;2022-08-11T18:48:02;5.03;;;2.38;;
22737;SDS011;11536;50.860;4.286;2022-08-11T18:50:49;4.78;;;2.40;;
22737;SDS011;11536;50.860;4.286;2022-08-11T18:53:38;7.45;;;3.15;;
22737;SDS011;11536;50.860;4.286;2022-08-11T18:56:24;6.43;;;2.70;;
22737;SDS011;11536;50.860;4.286;2022-08-11T18:59:10;5.82;;;2.90;;
22737;SDS011;11536;50.860;4.286;2022-08-11T19:01:56;5.07;;;2.80;;
22737;SDS011;11536;50.860;4.286;2022-08-11T19:04:41;7.13;;;2.65;;
22737;SDS011;11536;50.860;4.286;2022-08-11T19:07:27;7.30;;;3.05;;
22737;SDS011;11536;50.860;4.286;2022-08-11T19:10:14;8.32;;;2.63;;
22737;SDS011;11536;50.860;4.286;2022-08-11T19:13:01;8.07;;;2.78;;
22737;SDS011;11536;50.860;4.286;2022-08-11T19:15:45;7.65;;;3.13;;
22737;SDS011;11536;50.860;4.286;2022-08-11T19:18:31;6.32;;;2.90;;
22737;SDS011;11536;50.860;4.286;2022-08-11T19:21:16;7.70;;;3.03;;
22737;SDS011;11536;50.860;4.286;2022-08-11T19:24:02;5.55;;;3.05;;
22737;SDS011;11536;50.860;4.286;2022-08-11T19:26:49;7.95;;;2.80;;
22737;SDS011;11536;50.860;4.286;2022-08-11T19:29:36;7.47;;;2.67;;